sensor_id;sensor_type;location;lat;lon;timestamp;P1;durP1;ratioP1;P2;durP2;ratioP2
7255;SDS011;3669;49.200;9.242;2023-04-25T00:00:28;3.22;;;2.92;;
7255;SDS011;3669;49.200;9.242;2023-04-25T00:02:55;11.48;;;10.88;;
7255;SDS011;3669;49.200;9.242;2023-04-25T00:05:23;3.03;;;2.83;;
7255;SDS011;3669;49.200;9.242;2023-04-25T00:07:50;2.92;;;2.72;;
7255;SDS011;3669;49.200;9.242;2023-04-25T00:10:18;3.53;;;3.22;;
7255;SDS011;3669;49.200;9.242;2023-04-25T00:12:45;3.55;;;3.25;;
7255;SDS011;3669;49.200;9.242;2023-04-25T00:15:13;3.67;;;3.38;;
7255;SDS011;3669;49.200;9.242;2023-04-25T00:17:40;3.15;;;2.95;;
7255;SDS011;3669;49.200;9.242;2023-04-25T00:20:08;3.40;;;3.20;;
7255;SDS011;3669;49.200;9.242;2023-04-25T00:22:35;3.17;;;2.88;;
7255;SDS011;3669;49.200;9.242;2023-04-25T00:25:06;3.40;;;3.10;;
7255;SDS011;3669;49.200;9.242;2023-04-25T00:27:33;3.63;;;3.00;;
7255;SDS011;3669;49.200;9.242;2023-04-25T00:30:00;4.20;;;3.00;;
7255;SDS011;3669;49.200;9.242;2023-04-25T00:32:28;3.40;;;3.20;;
7255;SDS011;3669;49.200;9.242;2023-04-25T00:34:55;3.00;;;2.80;;
7255;SDS011;3669;49.200;9.242;2023-04-25T00:37:23;3.10;;;2.90;;
7255;SDS011;3669;49.200;9.242;2023-04-25T00:39:50;3.33;;;3.13;;
7255;SDS011;3669;49.200;9.242;2023-04-25T00:42:19;2.90;;;2.70;;
7255;SDS011;3669;49.200;9.242;2023-04-25T00:44:46;3.15;;;2.95;;
7255;SDS011;3669;49.200;9.242;2023-04-25T00:47:13;3.33;;;3.10;;
7255;SDS011;3669;49.200;9.242;2023-04-25T00:49:40;10.95;;;10.38;;
7255;SDS011;3669;49.200;9.242;2023-04-25T00:52:07;19.38;;;18.45;;
7255;SDS011;3669;49.200;9.242;2023-04-25T00:54:34;30.40;;;28.73;;
7255;SDS011;3669;49.200;9.242;2023-04-25T00:57:01;24.65;;;23.50;;
7255;SDS011;3669;49.200;9.242;2023-04-25T00:59:28;15.65;;;14.98;;
7255;SDS011;3669;49.200;9.242;2023-04-25T01:01:56;19.63;;;18.65;;
7255;SDS011;3669;49.200;9.242;2023-04-25T01:04:23;11.02;;;10.40;;
7255;SDS011;3669;49.200;9.242;2023-04-25T01:06:49;3.90;;;3.67;;
7255;SDS011;3669;49.200;9.242;2023-04-25T01:09:16;3.30;;;3.00;;
7255;SDS011;3669;49.200;9.242;2023-04-25T01:11:45;3.08;;;2.88;;
7255;SDS011;3669;49.200;9.242;2023-04-25T01:14:12;3.30;;;3.08;;
7255;SDS011;3669;49.200;9.242;2023-04-25T01:16:39;3.08;;;2.88;;
7255;SDS011;3669;49.200;9.242;2023-04-25T01:19:10;3.03;;;2.83;;
7255;SDS011;3669;49.200;9.242;2023-04-25T01:21:38;2.63;;;2.42;;
7255;SDS011;3669;49.200;9.242;2023-04-25T01:24:05;3.17;;;2.80;;
7255;SDS011;3669;49.200;9.242;2023-04-25T01:26:33;3.40;;;3.10;;
7255;SDS011;3669;49.200;9.242;2023-04-25T01:29:01;3.75;;;3.03;;
7255;SDS011;3669;49.200;9.242;2023-04-25T01:31:30;4.20;;;3.10;;
7255;SDS011;3669;49.200;9.242;2023-04-25T01:33:58;3.33;;;3.10;;
7255;SDS011;3669;49.200;9.242;2023-04-25T01:36:26;3.22;;;3.03;;
7255;SDS011;3669;49.200;9.242;2023-04-25T01:38:53;3.50;;;3.20;;
7255;SDS011;3669;49.200;9.242;2023-04-25T01:41:20;3.75;;;3.45;;
7255;SDS011;3669;49.200;9.242;2023-04-25T01:43:49;3.38;;;3.08;;
7255;SDS011;3669;49.200;9.242;2023-04-25T01:46:16;3.10;;;2.90;;
7255;SDS011;3669;49.200;9.242;2023-04-25T01:48:43;3.58;;;3.38;;
7255;SDS011;3669;49.200;9.242;2023-04-25T01:51:10;3.47;;;3.17;;
7255;SDS011;3669;49.200;9.242;2023-04-25T01:53:37;3.42;;;3.13;;
7255;SDS011;3669;49.200;9.242;2023-04-25T01:56:05;3.70;;;3.40;;
7255;SDS011;3669;49.200;9.242;2023-04-25T01:58:32;3.38;;;3.08;;
7255;SDS011;3669;49.200;9.242;2023-04-25T02:00:59;3.35;;;3.05;;
7255;SDS011;3669;49.200;9.242;2023-04-25T02:03:27;3.60;;;3.30;;
7255;SDS011;3669;49.200;9.242;2023-04-25T02:05:54;3.47;;;3.17;;
7255;SDS011;3669;49.200;9.242;2023-04-25T02:08:21;3.53;;;3.22;;
7255;SDS011;3669;49.200;9.242;2023-04-25T02:10:48;3.22;;;3.03;;
7255;SDS011;3669;49.200;9.242;2023-04-25T02:13:15;3.58;;;3.28;;
7255;SDS011;3669;49.200;9.242;2023-04-25T02:15:42;3.65;;;3.35;;
7255;SDS011;3669;49.200;9.242;2023-04-25T02:18:09;3.33;;;3.13;;
7255;SDS011;3669;49.200;9.242;2023-04-25T02:20:36;3.80;;;3.50;;
7255;SDS011;3669;49.200;9.242;2023-04-25T02:23:04;3.75;;;3.40;;
7255;SDS011;3669;49.200;9.242;2023-04-25T02:25:31;3.38;;;3.08;;
7255;SDS011;3669;49.200;9.242;2023-04-25T02:27:58;4.03;;;3.72;;
7255;SDS011;3669;49.200;9.242;2023-04-25T02:30:25;3.70;;;3.38;;
7255;SDS011;3669;49.200;9.242;2023-04-25T02:32:52;3.55;;;3.28;;
7255;SDS011;3669;49.200;9.242;2023-04-25T02:35:19;4.25;;;3.88;;
7255;SDS011;3669;49.200;9.242;2023-04-25T02:37:46;3.97;;;3.60;;
7255;SDS011;3669;49.200;9.242;2023-04-25T02:40:13;3.42;;;3.13;;
7255;SDS011;3669;49.200;9.242;2023-04-25T02:42:40;3.40;;;3.17;;
7255;SDS011;3669;49.200;9.242;2023-04-25T02:45:07;3.40;;;3.20;;
7255;SDS011;3669;49.200;9.242;2023-04-25T02:47:35;3.35;;;3.10;;
7255;SDS011;3669;49.200;9.242;2023-04-25T02:50:02;3.50;;;3.20;;
7255;SDS011;3669;49.200;9.242;2023-04-25T02:52:29;3.75;;;3.38;;
7255;SDS011;3669;49.200;9.242;2023-04-25T02:54:56;3.78;;;3.47;;
7255;SDS011;3669;49.200;9.242;2023-04-25T02:57:23;7.93;;;7.53;;
7255;SDS011;3669;49.200;9.242;2023-04-25T02:59:50;26.55;;;25.33;;
7255;SDS011;3669;49.200;9.242;2023-04-25T03:02:16;29.25;;;27.83;;
7255;SDS011;3669;49.200;9.242;2023-04-25T03:04:43;28.83;;;27.27;;
7255;SDS011;3669;49.200;9.242;2023-04-25T03:07:11;29.92;;;28.48;;
7255;SDS011;3669;49.200;9.242;2023-04-25T03:09:38;14.70;;;13.98;;
7255;SDS011;3669;49.200;9.242;2023-04-25T03:12:05;6.95;;;6.53;;
7255;SDS011;3669;49.200;9.242;2023-04-25T03:14:32;3.58;;;3.28;;
7255;SDS011;3669;49.200;9.242;2023-04-25T03:16:59;3.47;;;3.28;;
7255;SDS011;3669;49.200;9.242;2023-04-25T03:19:26;3.20;;;3.00;;
7255;SDS011;3669;49.200;9.242;2023-04-25T03:21:53;3.15;;;2.85;;
7255;SDS011;3669;49.200;9.242;2023-04-25T03:24:21;3.25;;;3.05;;
7255;SDS011;3669;49.200;9.242;2023-04-25T03:26:48;3.20;;;2.90;;
7255;SDS011;3669;49.200;9.242;2023-04-25T03:29:15;3.67;;;3.38;;
7255;SDS011;3669;49.200;9.242;2023-04-25T03:31:42;3.53;;;3.22;;
7255;SDS011;3669;49.200;9.242;2023-04-25T03:34:09;3.25;;;2.95;;
7255;SDS011;3669;49.200;9.242;2023-04-25T03:36:36;3.30;;;3.10;;
7255;SDS011;3669;49.200;9.242;2023-04-25T03:39:03;3.67;;;3.38;;
7255;SDS011;3669;49.200;9.242;2023-04-25T03:41:32;3.42;;;3.22;;
7255;SDS011;3669;49.200;9.242;2023-04-25T03:43:59;3.53;;;3.33;;
7255;SDS011;3669;49.200;9.242;2023-04-25T03:46:26;3.53;;;3.17;;
7255;SDS011;3669;49.200;9.242;2023-04-25T03:48:53;3.60;;;3.30;;
7255;SDS011;3669;49.200;9.242;2023-04-25T03:51:20;3.97;;;3.67;;
7255;SDS011;3669;49.200;9.242;2023-04-25T03:53:47;3.72;;;3.42;;
7255;SDS011;3669;49.200;9.242;2023-04-25T03:56:14;3.63;;;3.33;;
7255;SDS011;3669;49.200;9.242;2023-04-25T03:58:41;3.85;;;3.55;;
7255;SDS011;3669;49.200;9.242;2023-04-25T04:01:08;3.90;;;3.50;;
7255;SDS011;3669;49.200;9.242;2023-04-25T04:03:36;3.85;;;3.55;;
7255;SDS011;3669;49.200;9.242;2023-04-25T04:06:03;3.63;;;3.33;;
7255;SDS011;3669;49.200;9.242;2023-04-25T04:08:31;3.75;;;3.55;;
7255;SDS011;3669;49.200;9.242;2023-04-25T04:10:59;3.72;;;3.38;;
7255;SDS011;3669;49.200;9.242;2023-04-25T04:13:26;3.90;;;3.60;;
7255;SDS011;3669;49.200;9.242;2023-04-25T04:15:53;3.90;;;3.60;;
7255;SDS011;3669;49.200;9.242;2023-04-25T04:18:21;3.60;;;3.30;;
7255;SDS011;3669;49.200;9.242;2023-04-25T04:20:48;3.78;;;3.47;;
7255;SDS011;3669;49.200;9.242;2023-04-25T04:23:15;4.28;;;3.90;;
7255;SDS011;3669;49.200;9.242;2023-04-25T04:25:42;4.32;;;3.92;;
7255;SDS011;3669;49.200;9.242;2023-04-25T04:28:09;4.13;;;3.83;;
7255;SDS011;3669;49.200;9.242;2023-04-25T04:30:36;4.30;;;3.90;;
7255;SDS011;3669;49.200;9.242;2023-04-25T04:33:04;4.43;;;4.03;;
7255;SDS011;3669;49.200;9.242;2023-04-25T04:35:33;3.70;;;3.50;;
7255;SDS011;3669;49.200;9.242;2023-04-25T04:38:00;4.38;;;3.97;;
7255;SDS011;3669;49.200;9.242;2023-04-25T04:40:27;4.00;;;3.70;;
7255;SDS011;3669;49.200;9.242;2023-04-25T04:42:56;3.97;;;3.67;;
7255;SDS011;3669;49.200;9.242;2023-04-25T04:45:23;4.90;;;4.50;;
7255;SDS011;3669;49.200;9.242;2023-04-25T04:47:50;4.20;;;3.75;;
7255;SDS011;3669;49.200;9.242;2023-04-25T04:50:18;4.32;;;4.03;;
7255;SDS011;3669;49.200;9.242;2023-04-25T04:52:45;4.78;;;4.28;;
7255;SDS011;3669;49.200;9.242;2023-04-25T04:55:12;4.20;;;3.80;;
7255;SDS011;3669;49.200;9.242;2023-04-25T04:57:39;4.38;;;3.97;;
7255;SDS011;3669;49.200;9.242;2023-04-25T05:00:06;4.80;;;4.40;;
7255;SDS011;3669;49.200;9.242;2023-04-25T05:02:37;4.75;;;4.35;;
7255;SDS011;3669;49.200;9.242;2023-04-25T05:05:04;4.20;;;3.90;;
7255;SDS011;3669;49.200;9.242;2023-04-25T05:07:31;10.95;;;10.25;;
7255;SDS011;3669;49.200;9.242;2023-04-25T05:09:58;33.38;;;31.52;;
7255;SDS011;3669;49.200;9.242;2023-04-25T05:12:26;27.05;;;25.75;;
7255;SDS011;3669;49.200;9.242;2023-04-25T05:14:53;27.40;;;25.92;;
7255;SDS011;3669;49.200;9.242;2023-04-25T05:17:20;16.90;;;16.00;;
7255;SDS011;3669;49.200;9.242;2023-04-25T05:19:47;17.98;;;17.00;;
7255;SDS011;3669;49.200;9.242;2023-04-25T05:22:13;9.02;;;8.40;;
7255;SDS011;3669;49.200;9.242;2023-04-25T05:24:40;5.35;;;4.53;;
7255;SDS011;3669;49.200;9.242;2023-04-25T05:27:08;5.28;;;4.80;;
7255;SDS011;3669;49.200;9.242;2023-04-25T05:29:35;4.50;;;4.20;;
7255;SDS011;3669;49.200;9.242;2023-04-25T05:32:03;4.60;;;4.30;;
7255;SDS011;3669;49.200;9.242;2023-04-25T05:34:30;4.70;;;4.30;;
7255;SDS011;3669;49.200;9.242;2023-04-25T05:36:57;4.47;;;4.07;;
7255;SDS011;3669;49.200;9.242;2023-04-25T05:39:24;4.88;;;4.47;;
7255;SDS011;3669;49.200;9.242;2023-04-25T05:41:51;4.40;;;4.10;;
7255;SDS011;3669;49.200;9.242;2023-04-25T05:44:18;4.90;;;4.50;;
7255;SDS011;3669;49.200;9.242;2023-04-25T05:46:46;4.35;;;4.05;;
7255;SDS011;3669;49.200;9.242;2023-04-25T05:49:13;4.40;;;4.00;;
7255;SDS011;3669;49.200;9.242;2023-04-25T05:51:40;4.63;;;4.30;;
7255;SDS011;3669;49.200;9.242;2023-04-25T05:54:07;4.78;;;4.38;;
7255;SDS011;3669;49.200;9.242;2023-04-25T05:56:35;4.57;;;4.28;;
7255;SDS011;3669;49.200;9.242;2023-04-25T05:59:02;4.53;;;4.22;;
7255;SDS011;3669;49.200;9.242;2023-04-25T06:01:29;4.63;;;4.22;;
7255;SDS011;3669;49.200;9.242;2023-04-25T06:03:57;4.50;;;4.10;;
7255;SDS011;3669;49.200;9.242;2023-04-25T06:06:24;4.72;;;4.38;;
7255;SDS011;3669;49.200;9.242;2023-04-25T06:08:52;4.32;;;4.03;;
7255;SDS011;3669;49.200;9.242;2023-04-25T06:11:20;4.28;;;3.97;;
7255;SDS011;3669;49.200;9.242;2023-04-25T06:13:47;4.88;;;4.47;;
7255;SDS011;3669;49.200;9.242;2023-04-25T06:16:14;4.72;;;4.32;;
7255;SDS011;3669;49.200;9.242;2023-04-25T06:18:41;4.90;;;4.50;;
7255;SDS011;3669;49.200;9.242;2023-04-25T06:21:08;4.40;;;4.10;;
7255;SDS011;3669;49.200;9.242;2023-04-25T06:23:36;4.85;;;4.45;;
7255;SDS011;3669;49.200;9.242;2023-04-25T06:26:03;4.78;;;4.38;;
7255;SDS011;3669;49.200;9.242;2023-04-25T06:28:30;4.72;;;4.32;;
7255;SDS011;3669;49.200;9.242;2023-04-25T06:30:57;4.80;;;4.40;;
7255;SDS011;3669;49.200;9.242;2023-04-25T06:33:24;4.50;;;4.20;;
7255;SDS011;3669;49.200;9.242;2023-04-25T06:35:52;4.70;;;4.30;;
7255;SDS011;3669;49.200;9.242;2023-04-25T06:38:19;4.82;;;4.43;;
7255;SDS011;3669;49.200;9.242;2023-04-25T06:40:46;4.70;;;4.30;;
7255;SDS011;3669;49.200;9.242;2023-04-25T06:43:13;4.88;;;4.40;;
7255;SDS011;3669;49.200;9.242;2023-04-25T06:45:40;4.43;;;4.00;;
7255;SDS011;3669;49.200;9.242;2023-04-25T06:48:08;4.97;;;4.57;;
7255;SDS011;3669;49.200;9.242;2023-04-25T06:50:35;4.25;;;3.95;;
7255;SDS011;3669;49.200;9.242;2023-04-25T06:53:01;4.53;;;4.22;;
7255;SDS011;3669;49.200;9.242;2023-04-25T06:55:28;5.00;;;4.60;;
7255;SDS011;3669;49.200;9.242;2023-04-25T06:57:56;4.90;;;4.50;;
7255;SDS011;3669;49.200;9.242;2023-04-25T07:00:22;21.17;;;19.83;;
7255;SDS011;3669;49.200;9.242;2023-04-25T07:02:51;27.58;;;26.00;;
7255;SDS011;3669;49.200;9.242;2023-04-25T07:05:18;30.77;;;29.05;;
7255;SDS011;3669;49.200;9.242;2023-04-25T07:07:45;25.15;;;23.80;;
7255;SDS011;3669;49.200;9.242;2023-04-25T07:10:12;28.02;;;26.58;;
7255;SDS011;3669;49.200;9.242;2023-04-25T07:12:38;14.13;;;13.35;;
7255;SDS011;3669;49.200;9.242;2023-04-25T07:15:05;5.28;;;4.53;;
7255;SDS011;3669;49.200;9.242;2023-04-25T07:17:35;5.75;;;5.25;;
7255;SDS011;3669;49.200;9.242;2023-04-25T07:20:02;5.45;;;5.03;;
7255;SDS011;3669;49.200;9.242;2023-04-25T07:22:29;5.07;;;4.68;;
7255;SDS011;3669;49.200;9.242;2023-04-25T07:24:56;5.32;;;4.82;;
7255;SDS011;3669;49.200;9.242;2023-04-25T07:27:24;5.00;;;4.60;;
7255;SDS011;3669;49.200;9.242;2023-04-25T07:29:51;4.82;;;4.43;;
7255;SDS011;3669;49.200;9.242;2023-04-25T07:32:18;5.00;;;4.60;;
7255;SDS011;3669;49.200;9.242;2023-04-25T07:34:45;5.32;;;4.82;;
7255;SDS011;3669;49.200;9.242;2023-04-25T07:37:13;5.30;;;4.88;;
7255;SDS011;3669;49.200;9.242;2023-04-25T07:39:40;5.80;;;5.30;;
7255;SDS011;3669;49.200;9.242;2023-04-25T07:42:07;5.80;;;5.30;;
7255;SDS011;3669;49.200;9.242;2023-04-25T07:44:35;7.22;;;6.72;;
7255;SDS011;3669;49.200;9.242;2023-04-25T07:47:06;4.90;;;4.50;;
7255;SDS011;3669;49.200;9.242;2023-04-25T07:49:33;4.82;;;4.43;;
7255;SDS011;3669;49.200;9.242;2023-04-25T07:52:01;5.28;;;4.88;;
7255;SDS011;3669;49.200;9.242;2023-04-25T07:54:28;5.15;;;4.75;;
7255;SDS011;3669;49.200;9.242;2023-04-25T07:56:55;5.20;;;4.80;;
7255;SDS011;3669;49.200;9.242;2023-04-25T07:59:23;5.38;;;4.97;;
7255;SDS011;3669;49.200;9.242;2023-04-25T08:01:50;5.25;;;4.85;;
7255;SDS011;3669;49.200;9.242;2023-04-25T08:04:17;5.20;;;4.70;;
7255;SDS011;3669;49.200;9.242;2023-04-25T08:06:44;4.90;;;4.50;;
7255;SDS011;3669;49.200;9.242;2023-04-25T08:09:12;5.20;;;4.80;;
7255;SDS011;3669;49.200;9.242;2023-04-25T08:11:39;5.25;;;4.85;;
7255;SDS011;3669;49.200;9.242;2023-04-25T08:14:06;6.50;;;5.93;;
7255;SDS011;3669;49.200;9.242;2023-04-25T08:16:33;6.15;;;5.63;;
7255;SDS011;3669;49.200;9.242;2023-04-25T08:19:00;6.20;;;5.70;;
7255;SDS011;3669;49.200;9.242;2023-04-25T08:21:28;6.10;;;5.60;;
7255;SDS011;3669;49.200;9.242;2023-04-25T08:23:55;6.28;;;5.68;;
7255;SDS011;3669;49.200;9.242;2023-04-25T08:26:24;6.72;;;6.20;;
7255;SDS011;3669;49.200;9.242;2023-04-25T08:28:51;6.90;;;6.30;;
7255;SDS011;3669;49.200;9.242;2023-04-25T08:31:18;17.02;;;15.93;;
7255;SDS011;3669;49.200;9.242;2023-04-25T08:33:45;6.65;;;6.15;;
7255;SDS011;3669;49.200;9.242;2023-04-25T08:36:12;6.97;;;6.35;;
7255;SDS011;3669;49.200;9.242;2023-04-25T08:38:40;6.53;;;5.93;;
7255;SDS011;3669;49.200;9.242;2023-04-25T08:41:07;6.15;;;5.65;;
7255;SDS011;3669;49.200;9.242;2023-04-25T08:43:34;6.68;;;6.07;;
7255;SDS011;3669;49.200;9.242;2023-04-25T08:46:01;6.88;;;6.38;;
7255;SDS011;3669;49.200;9.242;2023-04-25T08:48:29;6.32;;;5.82;;
7255;SDS011;3669;49.200;9.242;2023-04-25T08:51:01;6.40;;;5.75;;
7255;SDS011;3669;49.200;9.242;2023-04-25T08:53:30;6.35;;;5.72;;
7255;SDS011;3669;49.200;9.242;2023-04-25T08:55:58;6.63;;;6.03;;
7255;SDS011;3669;49.200;9.242;2023-04-25T08:58:27;6.03;;;5.53;;
7255;SDS011;3669;49.200;9.242;2023-04-25T09:00:54;9.05;;;8.38;;
7255;SDS011;3669;49.200;9.242;2023-04-25T09:03:22;32.00;;;30.05;;
7255;SDS011;3669;49.200;9.242;2023-04-25T09:05:49;34.50;;;32.65;;
7255;SDS011;3669;49.200;9.242;2023-04-25T09:08:16;37.83;;;35.67;;
7255;SDS011;3669;49.200;9.242;2023-04-25T09:10:43;25.35;;;24.02;;
7255;SDS011;3669;49.200;9.242;2023-04-25T09:15:47;11.45;;;10.27;;
7255;SDS011;3669;49.200;9.242;2023-04-25T09:18:21;6.22;;;5.50;;
7255;SDS011;3669;49.200;9.242;2023-04-25T09:20:51;5.75;;;5.25;;
7255;SDS011;3669;49.200;9.242;2023-04-25T09:23:19;6.45;;;5.72;;
7255;SDS011;3669;49.200;9.242;2023-04-25T09:25:50;5.75;;;5.28;;
7255;SDS011;3669;49.200;9.242;2023-04-25T09:28:26;5.93;;;5.43;;
7255;SDS011;3669;49.200;9.242;2023-04-25T09:30:56;5.25;;;4.85;;
7255;SDS011;3669;49.200;9.242;2023-04-25T09:33:30;5.88;;;5.38;;
7255;SDS011;3669;49.200;9.242;2023-04-25T09:36:04;5.82;;;5.22;;
7255;SDS011;3669;49.200;9.242;2023-04-25T09:38:33;6.15;;;5.55;;
7255;SDS011;3669;49.200;9.242;2023-04-25T09:41:07;5.38;;;4.88;;
7255;SDS011;3669;49.200;9.242;2023-04-25T09:43:35;6.00;;;5.50;;
7255;SDS011;3669;49.200;9.242;2023-04-25T09:46:03;5.85;;;5.35;;
7255;SDS011;3669;49.200;9.242;2023-04-25T09:48:35;5.93;;;5.43;;
7255;SDS011;3669;49.200;9.242;2023-04-25T09:51:15;5.90;;;5.40;;
7255;SDS011;3669;49.200;9.242;2023-04-25T09:53:43;6.18;;;5.68;;
7255;SDS011;3669;49.200;9.242;2023-04-25T09:56:20;5.97;;;5.47;;
7255;SDS011;3669;49.200;9.242;2023-04-25T09:58:48;6.57;;;5.97;;
7255;SDS011;3669;49.200;9.242;2023-04-25T10:01:17;5.97;;;5.47;;
7255;SDS011;3669;49.200;9.242;2023-04-25T10:03:44;6.88;;;6.18;;
7255;SDS011;3669;49.200;9.242;2023-04-25T10:06:14;6.57;;;6.07;;
7255;SDS011;3669;49.200;9.242;2023-04-25T10:08:44;6.47;;;5.88;;
7255;SDS011;3669;49.200;9.242;2023-04-25T10:11:12;7.13;;;6.40;;
7255;SDS011;3669;49.200;9.242;2023-04-25T10:13:41;6.88;;;6.10;;
7255;SDS011;3669;49.200;9.242;2023-04-25T10:16:09;5.85;;;5.43;;
7255;SDS011;3669;49.200;9.242;2023-04-25T10:18:37;6.30;;;5.70;;
7255;SDS011;3669;49.200;9.242;2023-04-25T10:21:04;6.78;;;6.07;;
7255;SDS011;3669;49.200;9.242;2023-04-25T10:23:32;6.53;;;5.82;;
7255;SDS011;3669;49.200;9.242;2023-04-25T10:26:03;6.80;;;6.20;;
7255;SDS011;3669;49.200;9.242;2023-04-25T10:28:30;6.45;;;5.85;;
7255;SDS011;3669;49.200;9.242;2023-04-25T10:31:16;16.63;;;15.63;;
7255;SDS011;3669;49.200;9.242;2023-04-25T10:33:44;5.78;;;5.25;;
7255;SDS011;3669;49.200;9.242;2023-04-25T10:36:18;6.00;;;5.50;;
7255;SDS011;3669;49.200;9.242;2023-04-25T10:38:47;5.90;;;5.30;;
7255;SDS011;3669;49.200;9.242;2023-04-25T10:41:20;6.07;;;5.55;;
7255;SDS011;3669;49.200;9.242;2023-04-25T10:43:48;15.40;;;14.50;;
7255;SDS011;3669;49.200;9.242;2023-04-25T10:46:16;15.88;;;14.82;;
7255;SDS011;3669;49.200;9.242;2023-04-25T10:48:47;5.90;;;5.40;;
7255;SDS011;3669;49.200;9.242;2023-04-25T10:51:19;6.45;;;5.60;;
7255;SDS011;3669;49.200;9.242;2023-04-25T10:53:48;6.82;;;6.13;;
7255;SDS011;3669;49.200;9.242;2023-04-25T10:56:25;6.40;;;5.80;;
7255;SDS011;3669;49.200;9.242;2023-04-25T10:59:02;6.78;;;6.18;;
7255;SDS011;3669;49.200;9.242;2023-04-25T11:01:35;6.80;;;6.13;;
7255;SDS011;3669;49.200;9.242;2023-04-25T11:04:02;6.60;;;6.00;;
7255;SDS011;3669;49.200;9.242;2023-04-25T11:06:33;6.00;;;5.50;;
7255;SDS011;3669;49.200;9.242;2023-04-25T11:09:03;5.95;;;5.43;;
7255;SDS011;3669;49.200;9.242;2023-04-25T11:11:38;6.57;;;5.97;;
7255;SDS011;3669;49.200;9.242;2023-04-25T11:14:05;6.50;;;5.93;;
7255;SDS011;3669;49.200;9.242;2023-04-25T11:16:32;6.32;;;5.65;;
7255;SDS011;3669;49.200;9.242;2023-04-25T11:18:59;6.65;;;5.95;;
7255;SDS011;3669;49.200;9.242;2023-04-25T11:21:26;7.05;;;6.30;;
7255;SDS011;3669;49.200;9.242;2023-04-25T11:23:54;6.30;;;5.78;;
7255;SDS011;3669;49.200;9.242;2023-04-25T11:26:24;6.50;;;5.95;;
7255;SDS011;3669;49.200;9.242;2023-04-25T11:28:51;7.18;;;6.10;;
7255;SDS011;3669;49.200;9.242;2023-04-25T11:31:25;5.88;;;5.38;;
7255;SDS011;3669;49.200;9.242;2023-04-25T11:33:53;6.28;;;5.65;;
7255;SDS011;3669;49.200;9.242;2023-04-25T11:36:22;6.80;;;6.20;;
7255;SDS011;3669;49.200;9.242;2023-04-25T11:38:53;6.38;;;5.88;;
7255;SDS011;3669;49.200;9.242;2023-04-25T11:41:20;5.97;;;5.47;;
7255;SDS011;3669;49.200;9.242;2023-04-25T11:43:48;6.53;;;5.93;;
7255;SDS011;3669;49.200;9.242;2023-04-25T11:46:17;6.85;;;6.25;;
7255;SDS011;3669;49.200;9.242;2023-04-25T11:48:45;6.82;;;5.78;;
7255;SDS011;3669;49.200;9.242;2023-04-25T11:51:13;6.32;;;5.82;;
7255;SDS011;3669;49.200;9.242;2023-04-25T11:53:41;6.25;;;5.75;;
7255;SDS011;3669;49.200;9.242;2023-04-25T11:56:12;7.15;;;6.55;;
7255;SDS011;3669;49.200;9.242;2023-04-25T11:59:13;6.30;;;5.55;;
7255;SDS011;3669;49.200;9.242;2023-04-25T12:01:34;6.05;;;5.45;;
7255;SDS011;3669;49.200;9.242;2023-04-25T12:04:15;7.20;;;5.93;;
7255;SDS011;3669;49.200;9.242;2023-04-25T12:06:42;5.78;;;5.38;;
7255;SDS011;3669;49.200;9.242;2023-04-25T12:09:14;6.28;;;5.68;;
7255;SDS011;3669;49.200;9.242;2023-04-25T12:11:47;6.95;;;5.75;;
7255;SDS011;3669;49.200;9.242;2023-04-25T12:14:26;6.20;;;5.60;;
7255;SDS011;3669;49.200;9.242;2023-04-25T12:16:58;6.45;;;5.50;;
7255;SDS011;3669;49.200;9.242;2023-04-25T12:19:26;6.65;;;5.82;;
7255;SDS011;3669;49.200;9.242;2023-04-25T12:21:53;6.10;;;5.45;;
7255;SDS011;3669;49.200;9.242;2023-04-25T12:24:24;6.13;;;5.30;;
7255;SDS011;3669;49.200;9.242;2023-04-25T12:27:04;5.55;;;5.05;;
7255;SDS011;3669;49.200;9.242;2023-04-25T12:29:32;5.53;;;5.13;;
7255;SDS011;3669;49.200;9.242;2023-04-25T12:32:00;5.43;;;4.93;;
7255;SDS011;3669;49.200;9.242;2023-04-25T12:34:31;6.32;;;5.05;;
7255;SDS011;3669;49.200;9.242;2023-04-25T12:37:02;5.22;;;4.78;;
7255;SDS011;3669;49.200;9.242;2023-04-25T12:39:29;5.75;;;5.20;;
7255;SDS011;3669;49.200;9.242;2023-04-25T12:41:56;5.35;;;4.85;;
7255;SDS011;3669;49.200;9.242;2023-04-25T12:44:24;6.25;;;4.80;;
7255;SDS011;3669;49.200;9.242;2023-04-25T12:46:51;5.43;;;4.50;;
7255;SDS011;3669;49.200;9.242;2023-04-25T12:49:20;6.63;;;5.32;;
7255;SDS011;3669;49.200;9.242;2023-04-25T12:51:47;5.55;;;5.05;;
7255;SDS011;3669;49.200;9.242;2023-04-25T12:54:15;5.30;;;4.90;;
7255;SDS011;3669;49.200;9.242;2023-04-25T12:56:42;5.22;;;4.60;;
7255;SDS011;3669;49.200;9.242;2023-04-25T12:59:09;10.85;;;10.20;;
7255;SDS011;3669;49.200;9.242;2023-04-25T13:01:36;28.30;;;26.60;;
7255;SDS011;3669;49.200;9.242;2023-04-25T13:04:04;40.90;;;38.75;;
7255;SDS011;3669;49.200;9.242;2023-04-25T13:06:31;27.45;;;25.77;;
7255;SDS011;3669;49.200;9.242;2023-04-25T13:08:58;15.05;;;14.23;;
7255;SDS011;3669;49.200;9.242;2023-04-25T13:11:27;5.78;;;5.10;;
7255;SDS011;3669;49.200;9.242;2023-04-25T13:13:55;6.60;;;4.85;;
7255;SDS011;3669;49.200;9.242;2023-04-25T13:16:22;5.22;;;4.78;;
7255;SDS011;3669;49.200;9.242;2023-04-25T13:18:50;5.90;;;5.00;;
7255;SDS011;3669;49.200;9.242;2023-04-25T13:21:17;6.32;;;5.18;;
7255;SDS011;3669;49.200;9.242;2023-04-25T13:23:44;5.80;;;5.30;;
7255;SDS011;3669;49.200;9.242;2023-04-25T13:26:12;5.60;;;5.10;;
7255;SDS011;3669;49.200;9.242;2023-04-25T13:28:40;5.82;;;5.18;;
7255;SDS011;3669;49.200;9.242;2023-04-25T13:31:07;8.02;;;7.18;;
7255;SDS011;3669;49.200;9.242;2023-04-25T13:33:34;5.45;;;4.95;;
7255;SDS011;3669;49.200;9.242;2023-04-25T13:36:01;4.90;;;4.50;;
7255;SDS011;3669;49.200;9.242;2023-04-25T13:38:28;5.15;;;4.68;;
7255;SDS011;3669;49.200;9.242;2023-04-25T13:40:57;4.72;;;4.32;;
7255;SDS011;3669;49.200;9.242;2023-04-25T13:43:24;5.55;;;4.75;;
7255;SDS011;3669;49.200;9.242;2023-04-25T13:45:51;4.85;;;4.45;;
7255;SDS011;3669;49.200;9.242;2023-04-25T13:48:19;4.82;;;4.32;;
7255;SDS011;3669;49.200;9.242;2023-04-25T13:50:47;4.78;;;4.38;;
7255;SDS011;3669;49.200;9.242;2023-04-25T13:53:15;4.88;;;4.10;;
7255;SDS011;3669;49.200;9.242;2023-04-25T13:55:42;4.60;;;4.13;;
7255;SDS011;3669;49.200;9.242;2023-04-25T13:58:09;4.78;;;4.35;;
7255;SDS011;3669;49.200;9.242;2023-04-25T14:00:37;4.05;;;3.65;;
7255;SDS011;3669;49.200;9.242;2023-04-25T14:03:04;5.32;;;4.18;;
7255;SDS011;3669;49.200;9.242;2023-04-25T14:05:33;3.75;;;3.45;;
7255;SDS011;3669;49.200;9.242;2023-04-25T14:08:05;4.40;;;4.00;;
7255;SDS011;3669;49.200;9.242;2023-04-25T14:10:32;4.15;;;3.75;;
7255;SDS011;3669;49.200;9.242;2023-04-25T14:13:00;4.25;;;3.75;;
7255;SDS011;3669;49.200;9.242;2023-04-25T14:15:29;4.13;;;3.72;;
7255;SDS011;3669;49.200;9.242;2023-04-25T14:17:56;4.20;;;3.60;;
7255;SDS011;3669;49.200;9.242;2023-04-25T14:20:23;5.03;;;3.85;;
7255;SDS011;3669;49.200;9.242;2023-04-25T14:22:51;4.13;;;3.38;;
7255;SDS011;3669;49.200;9.242;2023-04-25T14:25:20;4.85;;;4.05;;
7255;SDS011;3669;49.200;9.242;2023-04-25T14:27:47;4.05;;;3.65;;
7255;SDS011;3669;49.200;9.242;2023-04-25T14:30:19;4.03;;;3.60;;
7255;SDS011;3669;49.200;9.242;2023-04-25T14:32:48;3.63;;;3.30;;
7255;SDS011;3669;49.200;9.242;2023-04-25T14:35:16;4.00;;;3.60;;
7255;SDS011;3669;49.200;9.242;2023-04-25T14:37:43;3.58;;;3.33;;
7255;SDS011;3669;49.200;9.242;2023-04-25T14:40:10;4.00;;;3.60;;
7255;SDS011;3669;49.200;9.242;2023-04-25T14:42:39;3.92;;;3.25;;
7255;SDS011;3669;49.200;9.242;2023-04-25T14:45:07;3.42;;;3.10;;
7255;SDS011;3669;49.200;9.242;2023-04-25T14:47:35;4.10;;;3.70;;
7255;SDS011;3669;49.200;9.242;2023-04-25T14:50:02;4.15;;;3.53;;
7255;SDS011;3669;49.200;9.242;2023-04-25T14:52:30;4.05;;;3.50;;
7255;SDS011;3669;49.200;9.242;2023-04-25T14:54:57;4.03;;;3.25;;
7255;SDS011;3669;49.200;9.242;2023-04-25T14:57:26;4.25;;;3.33;;
7255;SDS011;3669;49.200;9.242;2023-04-25T14:59:53;3.95;;;3.58;;
7255;SDS011;3669;49.200;9.242;2023-04-25T15:02:20;3.80;;;3.40;;
7255;SDS011;3669;49.200;9.242;2023-04-25T15:04:47;3.80;;;3.45;;
7255;SDS011;3669;49.200;9.242;2023-04-25T15:07:14;16.05;;;15.20;;
7255;SDS011;3669;49.200;9.242;2023-04-25T15:09:41;11.63;;;10.98;;
7255;SDS011;3669;49.200;9.242;2023-04-25T15:12:08;13.27;;;12.45;;
7255;SDS011;3669;49.200;9.242;2023-04-25T15:14:35;24.80;;;23.55;;
7255;SDS011;3669;49.200;9.242;2023-04-25T15:17:02;14.85;;;14.05;;
7255;SDS011;3669;49.200;9.242;2023-04-25T15:19:29;8.27;;;7.60;;